1898 NOT_NAMED (1898238N25130)


IBTrACS version v04r00. Visit IBTrACS website for data access.
Please direct all questions to the IBTrACS Q and A forum

Storm track - Intensity - Wind Radii - Intensity Data - Source Data - All data

Summary Information

Storm ID 1898238N25130
Start Aug 25 16Z
Landfall Aug 30 03Z
End Sep 1 04Z
ATCF IDs
Track status Best track data.

Storm track plot

Map of storm track

Intensity plots

No Intensity information for this storm


Radial wind information

No radial wind information for this storm


Position and Intensity Table

BASIN ISO_TIME_________ NATURE LAT LON
degrees north degrees east
WP 1898-08-25 16:00:00 NR 24.50 130.00
WP 18:00:00 NR 24.59 129.87
WP 21:00:00 NR 24.74 129.68
WP 1898-08-26 00:00:00 NR 24.93 129.50
WP 03:00:00 NR 25.19 129.35
WP 04:00:00 NR 25.30 129.30
WP 06:00:00 NR 25.55 129.21
WP 09:00:00 NR 25.98 129.09
WP 12:00:00 NR 26.43 128.93
WP 15:00:00 NR 26.87 128.70
WP 16:00:00 NR 27.00 128.60
WP 18:00:00 NR 27.26 128.35
WP 21:00:00 NR 27.61 127.91
WP 1898-08-27 00:00:00 NR 27.89 127.40
WP 03:00:00 NR 28.07 126.87
WP 04:00:00 NR 28.10 126.70
WP 06:00:00 NR 28.12 126.37
WP 09:00:00 NR 28.05 125.88
WP 12:00:00 NR 27.91 125.40
WP 15:00:00 NR 27.75 124.94
WP 16:00:00 NR 27.70 124.80
WP 18:00:00 NR 27.64 124.54
WP 21:00:00 NR 27.56 124.17
WP 1898-08-28 00:00:00 NR 27.46 123.81
WP 03:00:00 NR 27.35 123.43
WP 04:00:00 NR 27.30 123.30
WP 06:00:00 NR 27.19 122.99
WP 09:00:00 NR 27.01 122.51
WP 12:00:00 NR 26.80 122.02
WP 15:00:00 NR 26.58 121.55
WP 16:00:00 NR 26.50 121.40
WP 18:00:00 NR 26.36 121.12
WP 21:00:00 NR 26.15 120.72
WP 1898-08-29 00:00:00 NR 25.92 120.38
WP 03:00:00 NR 25.68 120.08
WP 04:00:00 NR 25.60 120.00
WP 06:00:00 NR 25.41 119.81
WP 09:00:00 NR 25.12 119.57
WP 12:00:00 NR 24.84 119.41
WP 15:00:00 NR 24.58 119.38
WP 16:00:00 NR 24.50 119.40
WP 18:00:00 NR 24.33 119.48
WP 21:00:00 NR 24.11 119.72
WP 1898-08-30 00:00:00 NR 23.95 120.06
WP 03:00:00 NR 23.89 120.46
WP 04:00:00 NR 23.90 120.60
WP 06:00:00 NR 23.96 120.87
WP 09:00:00 NR 24.15 121.31
WP 12:00:00 NR 24.41 121.77
WP 15:00:00 NR 24.70 122.25
WP 16:00:00 NR 24.80 122.40
WP 18:00:00 NR 24.96 122.69
WP 21:00:00 NR 25.20 123.13
WP 1898-08-31 00:00:00 NR 25.45 123.56
WP 03:00:00 NR 25.71 123.97
WP 04:00:00 NR 25.80 124.10
WP 06:00:00 NR 25.98 124.36
WP 09:00:00 NR 26.27 124.74
WP 12:00:00 NR 26.57 125.11
WP 15:00:00 NR 26.89 125.48
WP 16:00:00 NR 27.00 125.60
WP 18:00:00 NR 27.22 125.85
WP 21:00:00 NR 27.57 126.22
WP 1898-09-01 00:00:00 NR 27.92 126.59
WP 03:00:00 NR 28.28 126.97
WP 04:00:00 NR 28.40 127.10

Source Information

Agency Information
USA
TOKYO
CMA
HKO
NEWDELHI
REUNION
BOM
NADI
WELLINGTON
DS824
TD9636 cons_worldwide_trop_cyclone_18710101-19891231-003:Line=1847
TD9635
NEUMANN
MLC

All available IBTrACS Data

SEASON BASIN SUBBASIN ISO_TIME_________ NATURE LAT LON DIST2LAND LANDFALL IFLAG USA SSHS TD9636 LAT TD9636 LON TD9636 STAGE STORM SPEED STORM DIR
Year degrees north degrees east km km 1 degrees north degrees east kts degrees
1898 WP MM 1898-08-25 16:00:00 NR 24.50 130.00 729 718 __________O___ -1 24.50 130.00 7 4 307
1898 WP MM 18:00:00 NR 24.59 129.87 718 708 __________P___ -1 24.59 129.87 7 5 309
1898 WP MM 21:00:00 NR 24.74 129.68 710 689 __________P___ -1 24.74 129.68 7 5 316
1898 WP MM 1898-08-26 00:00:00 NR 24.93 129.50 691 659 __________P___ -1 24.93 129.50 7 5 326
1898 WP MM 03:00:00 NR 25.19 129.35 661 650 __________P___ -1 25.19 129.35 7 6 334
1898 WP MM 04:00:00 NR 25.30 129.30 650 631 __________O___ -1 25.30 129.30 3 8 342
1898 WP MM 06:00:00 NR 25.55 129.21 631 579 __________P___ -1 25.55 129.21 3 8 344
1898 WP MM 09:00:00 NR 25.98 129.09 579 539 __________P___ -1 25.98 129.09 3 9 344
1898 WP MM 12:00:00 NR 26.43 128.93 542 497 __________P___ -1 26.43 128.93 3 10 339
1898 WP MM 15:00:00 NR 26.87 128.70 497 490 __________P___ -1 26.87 128.70 3 10 333
1898 WP MM 16:00:00 NR 27.00 128.60 490 468 __________O___ -1 27.00 128.60 4 10 322
1898 WP MM 18:00:00 NR 27.26 128.35 468 454 __________P___ -1 27.26 128.35 4 10 314
1898 WP MM 21:00:00 NR 27.61 127.91 459 449 __________P___ -1 27.61 127.91 4 11 307
1898 WP MM 1898-08-27 00:00:00 NR 27.89 127.40 456 456 __________P___ -1 27.89 127.40 4 10 297
1898 WP MM 03:00:00 NR 28.07 126.87 470 474 __________P___ -1 28.07 126.87 4 10 289
1898 WP MM 04:00:00 NR 28.10 126.70 474 446 __________O___ -1 28.10 126.70 4 9 277
1898 WP MM 06:00:00 NR 28.12 126.37 446 399 __________P___ -1 28.12 126.37 4 9 266
1898 WP MM 09:00:00 NR 28.05 125.88 399 362 __________P___ -1 28.05 125.88 4 9 257
1898 WP MM 12:00:00 NR 27.91 125.40 362 323 __________P___ -1 27.91 125.40 4 9 250
1898 WP MM 15:00:00 NR 27.75 124.94 323 320 __________P___ -1 27.75 124.94 4 9 248
1898 WP MM 16:00:00 NR 27.70 124.80 320 295 __________O___ -1 27.70 124.80 4 8 253
1898 WP MM 18:00:00 NR 27.64 124.54 295 266 __________P___ -1 27.64 124.54 4 7 256
1898 WP MM 21:00:00 NR 27.56 124.17 266 233 __________P___ -1 27.56 124.17 4 7 254
1898 WP MM 1898-08-28 00:00:00 NR 27.46 123.81 233 209 __________P___ -1 27.46 123.81 4 7 252
1898 WP MM 03:00:00 NR 27.35 123.43 209 200 __________P___ -1 27.35 123.43 4 7 250
1898 WP MM 04:00:00 NR 27.30 123.30 200 184 __________O___ -1 27.30 123.30 4 8 249
1898 WP MM 06:00:00 NR 27.19 122.99 184 166 __________P___ -1 27.19 122.99 4 9 247
1898 WP MM 09:00:00 NR 27.01 122.51 170 150 __________P___ -1 27.01 122.51 4 10 246
1898 WP MM 12:00:00 NR 26.80 122.02 150 119 __________P___ -1 26.80 122.02 4 10 243
1898 WP MM 15:00:00 NR 26.58 121.55 119 118 __________P___ -1 26.58 121.55 4 9 242
1898 WP MM 16:00:00 NR 26.50 121.40 118 101 __________O___ -1 26.50 121.40 4 9 241
1898 WP MM 18:00:00 NR 26.36 121.12 101 74 __________P___ -1 26.36 121.12 4 8 240
1898 WP MM 21:00:00 NR 26.15 120.72 81 68 __________P___ -1 26.15 120.72 4 8 237
1898 WP MM 1898-08-29 00:00:00 NR 25.92 120.38 69 45 __________P___ -1 25.92 120.38 4 7 231
1898 WP MM 03:00:00 NR 25.68 120.08 45 37 __________P___ -1 25.68 120.08 4 7 227
1898 WP MM 04:00:00 NR 25.60 120.00 37 10 __________O___ -1 25.60 120.00 4 7 223
1898 WP MM 06:00:00 NR 25.41 119.81 10 0 __________P___ -1 25.41 119.81 4 7 219
1898 WP MM 09:00:00 NR 25.12 119.57 22 22 __________P___ -1 25.12 119.57 4 7 212
1898 WP MM 12:00:00 NR 24.84 119.41 39 39 __________P___ -1 24.84 119.41 4 6 197
1898 WP MM 15:00:00 NR 24.58 119.38 59 59 __________P___ -1 24.58 119.38 4 5 184
1898 WP MM 16:00:00 NR 24.50 119.40 67 67 __________O___ -1 24.50 119.40 4 5 159
1898 WP MM 18:00:00 NR 24.33 119.48 87 61 __________P___ -1 24.33 119.48 4 6 143
1898 WP MM 21:00:00 NR 24.11 119.72 61 20 __________P___ -1 24.11 119.72 4 6 126
1898 WP MM 1898-08-30 00:00:00 NR 23.95 120.06 20 0 __________P___ -1 23.95 120.06 4 7 108
1898 WP MM 03:00:00 NR 23.89 120.46 0 0 __________P___ -1 23.89 120.46 4 7 96
1898 WP MM 04:00:00 NR 23.90 120.60 0 0 __________O___ -1 23.90 120.60 4 8 80
1898 WP MM 06:00:00 NR 23.96 120.87 0 0 __________P___ -1 23.96 120.87 4 8 69
1898 WP MM 09:00:00 NR 24.15 121.31 0 0 __________P___ -1 24.15 121.31 4 9 62
1898 WP MM 12:00:00 NR 24.41 121.77 0 0 __________P___ -1 24.41 121.77 4 10 57
1898 WP MM 15:00:00 NR 24.70 122.25 37 37 __________P___ -1 24.70 122.25 4 10 56
1898 WP MM 16:00:00 NR 24.80 122.40 46 46 __________O___ -1 24.80 122.40 4 10 58
1898 WP MM 18:00:00 NR 24.96 122.69 70 70 __________P___ -1 24.96 122.69 4 9 59
1898 WP MM 21:00:00 NR 25.20 123.13 112 122 __________P___ -1 25.20 123.13 4 9 58
1898 WP MM 1898-08-31 00:00:00 NR 25.45 123.56 166 170 __________P___ -1 25.45 123.56 4 9 56
1898 WP MM 03:00:00 NR 25.71 123.97 215 215 __________P___ -1 25.71 123.97 4 9 54
1898 WP MM 04:00:00 NR 25.80 124.10 228 228 __________O___ -1 25.80 124.10 4 9 52
1898 WP MM 06:00:00 NR 25.98 124.36 265 265 __________P___ -1 25.98 124.36 4 9 51
1898 WP MM 09:00:00 NR 26.27 124.74 306 315 __________P___ -1 26.27 124.74 4 9 49
1898 WP MM 12:00:00 NR 26.57 125.11 357 357 __________P___ -1 26.57 125.11 4 9 47
1898 WP MM 15:00:00 NR 26.89 125.48 408 408 __________P___ -1 26.89 125.48 4 9 46
1898 WP MM 16:00:00 NR 27.00 125.60 419 419 __________O___ -1 27.00 125.60 4 9 45
1898 WP MM 18:00:00 NR 27.22 125.85 430 436 __________P___ -1 27.22 125.85 4 10 44
1898 WP MM 21:00:00 NR 27.57 126.22 447 447 __________P___ -1 27.57 126.22 4 10 43
1898 WP MM 1898-09-01 00:00:00 NR 27.92 126.59 471 447 __________P___ -1 27.92 126.59 4 10 43
1898 WP MM 03:00:00 NR 28.28 126.97 447 432 __________P___ -1 28.28 126.97 4 10 43
1898 WP MM 04:00:00 NR 28.40 127.10 432 __________O___ -1 28.40 127.10 4 10 43